Challenger 2 — ZQCM6 — position and weather

sailwx.info

Track history (hours):
 
Tides and Currents Weather Stations Pressure Air Temp Water Temp Dewpoint Dewpoint Depression Visibility Wind Speed Wind Dir Waves Ship Positions

Challenger 2

Last reported at 2018-May-23 01:29 UTC. Time now 2018-May-23 01:30 UTC.
Position N 59°04' E 005°55'.

Length 22 m.

Type: Sailing vessel. MMSI: 235007000.

Date/timePositionNaut miles runAvg speedWind from/ knotsBaromVisibWave heightAir tempDewpointWater temp
2018-May-23 01:29N 59°04' E 005°55'0 0.0
2018-May-23 00:59N 59°04' E 005°55'0 0.0
2018-May-23 00:29N 59°04' E 005°55'0 0.0
2018-May-22 23:59N 59°04' E 005°55'0 0.0
2018-May-22 23:29N 59°04' E 005°55'0 0.0
2018-May-22 22:59N 59°04' E 005°55'0 0.0
2018-May-22 22:29N 59°04' E 005°55'0 0.0
2018-May-22 21:56N 59°04' E 005°55'0 0.0
2018-May-22 21:29N 59°04' E 005°55'0 0.0
2018-May-22 20:59N 59°04' E 005°55'0 0.0
2018-May-22 20:29N 59°04' E 005°55'0 0.0
2018-May-22 19:59N 59°04' E 005°55'0 0.0
2018-May-22 19:26N 59°04' E 005°55'0 0.0
2018-May-22 18:56N 59°04' E 005°55'0 0.0
2018-May-22 18:29N 59°04' E 005°55'0 0.0
2018-May-22 17:59N 59°04' E 005°55'0 0.0
2018-May-22 17:26N 59°04' E 005°55'0 0.0
2018-May-22 16:56N 59°04' E 005°55'0 0.0
2018-May-22 16:26N 59°04' E 005°55'0 0.0
2018-May-22 15:59N 59°04' E 005°55'0 0.0
2018-May-22 15:29N 59°04' E 005°55'0 0.0
2018-May-22 14:59N 59°04' E 005°55'0 0.0
2018-May-22 14:26N 59°04' E 005°55'0 0.0
2018-May-22 13:59N 59°04' E 005°55'0 0.0
2018-May-22 13:29N 59°04' E 005°55'0 0.0
2018-May-22 12:56N 59°04' E 005°55'0 0.0
2018-May-22 12:29N 59°04' E 005°55'0 0.0
2018-May-22 11:59N 59°04' E 005°55'0 0.0
2018-May-22 11:29N 59°04' E 005°55'0 0.3
2018-May-22 11:00N 59°04' E 005°54'3 5.2
2018-May-22 10:30N 59°02' E 005°51'3 6.0
2018-May-22 10:00N 59°01' E 005°45'3 5.1
2018-May-22 09:30N 58°59' E 005°43'1 1.8
2018-May-22 08:59N 58°58' E 005°44'0 0.0
2018-May-22 08:29N 58°58' E 005°44'0 0.0
2018-May-22 07:59N 58°58' E 005°44'0 0.0
2018-May-22 07:29N 58°58' E 005°44'0 0.0
2018-May-22 06:59N 58°58' E 005°44'0 0.0
2018-May-22 06:29N 58°58' E 005°44'0 0.0
2018-May-22 05:59N 58°58' E 005°44'0 0.0
2018-May-22 05:29N 58°58' E 005°44'0 0.0
2018-May-22 04:59N 58°58' E 005°44'0 0.0
2018-May-22 04:29N 58°58' E 005°44'0 0.0
2018-May-22 03:59N 58°58' E 005°44'0 0.0
2018-May-22 03:29N 58°58' E 005°44'0 0.0
2018-May-22 02:56N 58°58' E 005°44'0 0.0
2018-May-22 02:29N 58°58' E 005°44'0 0.0
2018-May-22 01:59N 58°58' E 005°44'0 0.0
2018-May-22 01:29N 58°58' E 005°44'0 0.0
2018-May-22 00:59N 58°58' E 005°44'0 0.0
2018-May-22 00:29N 58°58' E 005°44'0 0.0
2018-May-21 23:59N 58°58' E 005°44'0 0.0
2018-May-21 23:29N 58°58' E 005°44'0 0.0
2018-May-21 22:59N 58°58' E 005°44'0 0.0
2018-May-21 22:29N 58°58' E 005°44'0 0.0
2018-May-21 21:59N 58°58' E 005°44'0 0.0
2018-May-21 21:29N 58°58' E 005°44'0 0.0
2018-May-21 20:59N 58°58' E 005°44'0 0.0
2018-May-21 20:29N 58°58' E 005°44'0 0.0
2018-May-21 19:59N 58°58' E 005°44'2 3.5
2018-May-21 19:30N 58°60' E 005°42'3 6.1
2018-May-21 19:00N 59°02' E 005°46'4 7.1
2018-May-21 18:30N 58°60' E 005°51'4 7.4
2018-May-21 18:00N 58°57' E 005°57'4 7.1
2018-May-21 17:25N 58°55' E 006°03'2 4.6
2018-May-21 17:00N 58°56' E 006°06'3 6.9
2018-May-21 16:30N 58°58' E 006°11'4 7.1
2018-May-21 16:00N 59°00' E 006°17'4 7.5
2018-May-21 15:30N 59°01' E 006°24'3 0.1
2018-May-20 12:39N 59°02' E 006°30'1 6.4
2018-May-20 12:30N 59°02' E 006°28'3 6.2
2018-May-20 12:00N 59°01' E 006°22'3 6.1
2018-May-20 11:30N 59°00' E 006°16'3 5.6
2018-May-20 11:00N 58°59' E 006°12'3 5.9
2018-May-20 10:30N 58°57' E 006°08'3 6.0
2018-May-20 09:59N 58°54' E 006°05'3 6.2
2018-May-20 09:30N 58°56' E 006°00'3 7.0
2018-May-20 09:00N 58°58' E 005°55'4 7.7
2018-May-20 08:30N 59°01' E 005°49'3 6.9
2018-May-20 08:00N 59°01' E 005°43'2 4.7
2018-May-20 07:30N 58°58' E 005°44'0 0.0
2018-May-20 07:00N 58°58' E 005°44'0 0.0
2018-May-20 06:30N 58°58' E 005°44'0 0.0
2018-May-20 06:00N 58°58' E 005°44'0 0.0
2018-May-20 05:30N 58°58' E 005°44'0 0.0
2018-May-20 05:00N 58°58' E 005°44'0 0.0
2018-May-20 04:30N 58°58' E 005°44'0 0.0
2018-May-20 04:00N 58°58' E 005°44'0 0.0
2018-May-20 03:27N 58°58' E 005°44'0 0.0
2018-May-20 03:00N 58°58' E 005°44'0 0.0
2018-May-20 02:30N 58°58' E 005°44'0 0.0
2018-May-20 02:00N 58°58' E 005°44'0 0.0
2018-May-20 01:30N 58°58' E 005°44'0 0.0
2018-May-20 01:00N 58°58' E 005°44'0 0.0
2018-May-20 00:30N 58°58' E 005°44'0 0.0
2018-May-20 00:00N 58°58' E 005°44'0 0.0
2018-May-19 23:30N 58°58' E 005°44'0 0.0
2018-May-19 23:00N 58°58' E 005°44'0 0.0
2018-May-19 22:30N 58°58' E 005°44'0 0.0
2018-May-19 22:00N 58°58' E 005°44'0 0.0
2018-May-19 21:27N 58°58' E 005°44'0 0.0
2018-May-19 20:57N 58°58' E 005°44'0 0.0
2018-May-19 20:30N 58°58' E 005°44'0 0.0
2018-May-19 20:00N 58°58' E 005°44'0 0.0
2018-May-19 19:30N 58°58' E 005°44'0 0.0
2018-May-19 18:57N 58°58' E 005°44'0 0.0
2018-May-19 18:30N 58°58' E 005°44'0 0.0
2018-May-19 17:54N 58°58' E 005°44'0 0.0
2018-May-19 17:27N 58°58' E 005°44'0 0.0
2018-May-19 17:00N 58°58' E 005°44'0 0.0
2018-May-19 16:30N 58°58' E 005°44'0 0.0
2018-May-19 16:00N 58°58' E 005°44'0 0.0
2018-May-19 15:30N 58°58' E 005°44'0 0.0
2018-May-19 15:00N 58°58' E 005°44'0 0.0
2018-May-19 14:30N 58°58' E 005°44'0 0.0
2018-May-19 14:00N 58°58' E 005°44'0 0.0
2018-May-19 13:30N 58°58' E 005°44'0 0.0
2018-May-19 13:00N 58°58' E 005°44'0 0.0
2018-May-19 12:30N 58°58' E 005°44'0 0.0
2018-May-19 12:00N 58°58' E 005°44'0 0.0
2018-May-19 11:30N 58°58' E 005°44'0 0.0
2018-May-19 11:00N 58°58' E 005°44'0 0.0
2018-May-19 10:30N 58°58' E 005°44'0 0.0
2018-May-19 10:00N 58°58' E 005°44'0 0.0
2018-May-19 09:30N 58°58' E 005°44'0 0.0
2018-May-19 09:00N 58°58' E 005°44'0 0.0
2018-May-19 08:30N 58°58' E 005°44'0 0.0
2018-May-19 08:00N 58°58' E 005°44'0 0.0
2018-May-19 07:30N 58°58' E 005°44'0 0.0
2018-May-19 07:00N 58°58' E 005°44'0 0.0
2018-May-19 06:30N 58°58' E 005°44'0 0.0
2018-May-19 06:00N 58°58' E 005°44'0 0.0
2018-May-19 05:27N 58°58' E 005°44'0 0.0
2018-May-19 05:00N 58°58' E 005°44'0 0.0
2018-May-19 04:30N 58°58' E 005°44'0 0.0
2018-May-19 04:00N 58°58' E 005°44'0 0.0
2018-May-19 03:30N 58°58' E 005°44'0 0.0
2018-May-19 03:00N 58°58' E 005°44'0 0.0
2018-May-19 02:30N 58°58' E 005°44'0 0.0
2018-May-19 02:00N 58°58' E 005°44'0 0.0
2018-May-19 01:30N 58°58' E 005°44'0 0.8
2018-May-19 01:00N 58°59' E 005°43'2 4.1
2018-May-19 00:30N 59°00' E 005°41'2 3.9
2018-May-19 00:00N 59°02' E 005°38'3 6.2
2018-May-18 23:30N 59°03' E 005°34'3 6.9
2018-May-18 23:00N 59°01' E 005°30'3 6.8
2018-May-18 22:30N 58°58' E 005°25'3 6.6
2018-May-18 22:00N 58°56' E 005°20'3 6.8
2018-May-18 21:30N 58°54' E 005°15'3 6.7
2018-May-18 21:00N 58°52' E 005°10'4 6.6
2018-May-18 20:20N 58°49' E 005°03'4 6.6
2018-May-18 19:47N 58°47' E 004°58'3 7.1
2018-May-18 19:22N 58°45' E 004°54'2 6.8
2018-May-18 19:00N 58°43' E 004°51'4 6.5
2018-May-18 18:25N 58°39' E 004°47'3 7.1
2018-May-18 18:00N 58°37' E 004°44'4 6.8
2018-May-18 17:24N 58°34' E 004°40'8 7.6
2018-May-18 16:18N 58°27' E 004°29'3 8.0
2018-May-18 15:54N 58°25' E 004°25'257 7.3
2018-May-17 04:37N 55°30' W 001°20'2 5.7
2018-May-17 04:22N 55°28' W 001°20'2 5.8
2018-May-17 03:58N 55°26' W 001°20'3 6.3
2018-May-17 03:28N 55°23' W 001°19'3 6.5
2018-May-17 02:59N 55°20' W 001°20'3 6.2
2018-May-17 02:26N 55°16' W 001°18'3 6.2
2018-May-17 02:00N 55°14' W 001°17'3 6.1
2018-May-17 01:30N 55°11' W 001°15'3 5.8
2018-May-17 01:00N 55°08' W 001°13'3 6.2
2018-May-17 00:29N 55°05' W 001°10'41 7.7
2018-May-16 19:07N 54°34' W 000°24'1 7.9
2018-May-16 18:56N 54°33' W 000°21'3 6.2
2018-May-16 18:31N 54°31' W 000°18'3 5.7
2018-May-16 18:00N 54°29' W 000°15'2 4.9
2018-May-16 17:30N 54°27' W 000°12'3 5.2
2018-May-16 17:00N 54°25' W 000°09'3 5.4
2018-May-16 16:30N 54°23' W 000°06'3 6.1
2018-May-16 16:00N 54°21' W 000°02'3 5.9
2018-May-16 15:30N 54°19' E 000°01'3 5.8
2018-May-16 15:00N 54°17' E 000°05'2 4.5
2018-May-16 14:30N 54°15' E 000°07'3 4.7
2018-May-16 13:57N 54°13' E 000°10'2 5.0
2018-May-16 13:29N 54°12' E 000°14'2 5.0
2018-May-16 12:59N 54°11' E 000°17'57 5.4
2018-May-16 02:33N 53°20' E 000°59'2 8.9
2018-May-16 02:20N 53°19' E 001°02'8 9.6
2018-May-16 01:33N 53°13' E 001°10'510.3
2018-May-16 01:04N 53°10' E 001°16'110.2
2018-May-16 00:56N 53°09' E 001°17'4 9.8
2018-May-16 00:30N 53°05' E 001°22'5 9.5
2018-May-15 23:59N 53°02' E 001°28'5 9.4
2018-May-15 23:30N 52°59' E 001°33'4 8.8
2018-May-15 23:01N 52°56' E 001°38'4 8.2
2018-May-15 22:30N 52°52' E 001°43'4 7.1
2018-May-15 22:00N 52°50' E 001°47'3 6.4
2018-May-15 21:29N 52°47' E 001°50'3 5.4
2018-May-15 20:54N 52°45' E 001°54'2 5.5
2018-May-15 20:30N 52°44' E 001°57'20 4.9
2018-May-15 16:23N 52°24' E 002°04'9 7.9
2018-May-15 15:13N 52°15' E 002°07'2 8.3
2018-May-15 14:56N 52°12' E 002°07'4 8.3
2018-May-15 14:29N 52°09' E 002°08'4 8.1
2018-May-15 13:59N 52°05' E 002°09'19 6.8
2018-May-15 11:12N 51°46' E 002°06'13 5.4
2018-May-15 08:50N 51°35' E 001°56'2 4.5
2018-May-15 08:29N 51°33' E 001°55'2 3.5
2018-May-15 08:00N 51°32' E 001°53'2 4.5
2018-May-15 07:30N 51°30' E 001°51'2 4.7
2018-May-15 07:00N 51°28' E 001°49'2 4.5
2018-May-15 06:30N 51°26' E 001°47'2 4.8
2018-May-15 06:00N 51°24' E 001°45'2 5.0
2018-May-15 05:30N 51°22' E 001°44'3 5.5
2018-May-15 05:00N 51°19' E 001°42'3 5.9
2018-May-15 04:30N 51°17' E 001°40'3 5.4
2018-May-15 04:01N 51°14' E 001°39'2 3.4
2018-May-15 03:30N 51°13' E 001°38'4 8.7
2018-May-15 02:59N 51°10' E 001°33'35 7.3
2018-May-14 22:10N 50°49' E 000°47'4 7.7
2018-May-14 21:42N 50°47' E 000°43'2 8.5
2018-May-14 21:30N 50°46' E 000°40'4 7.5
2018-May-14 20:59N 50°44' E 000°35'4 8.6
2018-May-14 20:29N 50°43' E 000°29'5 9.5
2018-May-14 20:00N 50°41' E 000°22'5 8.5
2018-May-14 19:23N 50°39' E 000°15'3 7.1
2018-May-14 19:00N 50°38' E 000°10'3 6.7
2018-May-14 18:29N 50°37' E 000°05'4 8.0
2018-May-14 17:59N 50°36' W 000°01'3 7.3
2018-May-14 17:30N 50°35' W 000°06'4 7.5
2018-May-14 17:00N 50°35' W 000°12'4 7.3
2018-May-14 16:30N 50°35' W 000°18'4 7.0
2018-May-14 15:57N 50°35' W 000°24'2 5.3
2018-May-14 15:29N 50°35' W 000°28'3 6.0
2018-May-14 14:59N 50°35' W 000°33'8 7.2
2018-May-14 13:53N 50°39' W 000°43'3 6.8
2018-May-14 13:24N 50°40' W 000°48'3 6.6
2018-May-14 12:58N 50°41' W 000°53'3 5.9
2018-May-14 12:29N 50°42' W 000°57'2 5.0
2018-May-14 12:00N 50°43' W 001°00'3 6.1
2018-May-14 11:30N 50°45' W 001°04'1 2.5
2018-May-14 11:00N 50°46' W 001°06'2 4.2
2018-May-14 10:28N 50°48' W 001°07'0 0.0
2018-May-14 09:58N 50°48' W 001°07'0 0.0
2018-May-14 09:28N 50°48' W 001°07'0 0.0
2018-May-14 08:58N 50°48' W 001°07'0 0.0
2018-May-14 08:28N 50°48' W 001°07'0 0.0
2018-May-14 07:58N 50°48' W 001°07'0 0.0
2018-May-14 07:28N 50°48' W 001°07'0 0.0
2018-May-14 06:58N 50°48' W 001°07'0 0.0
2018-May-14 06:28N 50°48' W 001°07'0 0.0
2018-May-14 05:58N 50°48' W 001°07'0 0.0
2018-May-14 05:28N 50°48' W 001°07'0 0.0
2018-May-14 04:58N 50°48' W 001°07'0 0.0
2018-May-14 04:28N 50°48' W 001°07'0 0.0
2018-May-14 03:58N 50°48' W 001°07'0 0.0
2018-May-14 03:28N 50°48' W 001°07'0 0.0
2018-May-14 02:58N 50°48' W 001°07'0 0.0
2018-May-14 02:28N 50°48' W 001°07'0 0.0
2018-May-14 01:58N 50°48' W 001°07'0 0.0
2018-May-14 01:28N 50°48' W 001°07'0 0.0
2018-May-14 00:58N 50°48' W 001°07'0 0.0
2018-May-14 00:28N 50°48' W 001°07'0 0.0
2018-May-13 23:58N 50°48' W 001°07'0 0.0
2018-May-13 23:28N 50°48' W 001°07'0 0.0
2018-May-13 22:58N 50°48' W 001°07'0 0.0
2018-May-13 22:28N 50°48' W 001°07'0 0.0
2018-May-13 21:58N 50°48' W 001°07'0 0.0
2018-May-13 21:28N 50°48' W 001°07'0 0.0
2018-May-13 20:58N 50°48' W 001°07'0 0.0
2018-May-13 20:28N 50°48' W 001°07'0 0.0
2018-May-13 19:58N 50°48' W 001°07'0 0.0
2018-May-13 19:28N 50°48' W 001°07'0 0.0
2018-May-13 18:58N 50°48' W 001°07'0 0.0
2018-May-13 18:28N 50°48' W 001°07'0 0.0
2018-May-13 17:58N 50°48' W 001°07'0 0.0
2018-May-13 17:28N 50°48' W 001°07'0 0.0
2018-May-13 16:58N 50°48' W 001°07'0 0.0
2018-May-13 16:28N 50°48' W 001°07'0 0.0
2018-May-13 15:58N 50°48' W 001°07'0 0.0
2018-May-13 15:28N 50°48' W 001°07'0 0.0
2018-May-13 14:58N 50°48' W 001°07'0 0.0
2018-May-13 14:28N 50°48' W 001°07'0 0.0
2018-May-13 13:58N 50°48' W 001°07'0 0.0
2018-May-13 13:28N 50°48' W 001°07'0 0.0
2018-May-13 12:58N 50°48' W 001°07'0 0.0
2018-May-13 12:28N 50°48' W 001°07'0 0.0
2018-May-13 11:58N 50°48' W 001°07'0 0.0
2018-May-13 11:28N 50°48' W 001°07'0 0.0
2018-May-13 10:58N 50°48' W 001°07'0 0.0
2018-May-13 10:28N 50°48' W 001°07'0 0.0
2018-May-13 09:58N 50°48' W 001°07'0 0.0
2018-May-13 09:28N 50°48' W 001°07'0 0.0
2018-May-13 08:58N 50°48' W 001°07'0 0.0
2018-May-13 08:28N 50°48' W 001°07'0 0.0
2018-May-13 07:58N 50°48' W 001°07'0 0.0
2018-May-13 07:28N 50°48' W 001°07'0 0.0
2018-May-13 06:58N 50°48' W 001°07'0 0.0
2018-May-13 06:28N 50°48' W 001°07'0 0.0
2018-May-13 05:58N 50°48' W 001°07'0 0.0
2018-May-13 05:28N 50°48' W 001°07'0 0.0
2018-May-13 04:58N 50°48' W 001°07'0 0.0
2018-May-13 04:28N 50°48' W 001°07'0 0.0
2018-May-13 03:58N 50°48' W 001°07'0 0.0
2018-May-13 03:28N 50°48' W 001°07'0 0.0
2018-May-13 02:58N 50°48' W 001°07'0 0.0
2018-May-13 02:28N 50°48' W 001°07'0 0.0
2018-May-13 01:58N 50°48' W 001°07'  
Track history (hours):
 
Tides and Currents Weather Stations Pressure Air Temp Water Temp Dewpoint Dewpoint Depression Visibility Wind Speed Wind Dir Waves Ship Positions

Challenger 2

Last reported at 2018-May-23 01:29 UTC. Time now 2018-May-23 01:30 UTC.
Position N 59°04' E 005°55'.

Length 22 m.

Type: Sailing vessel. MMSI: 235007000.

Date/timePositionNaut miles runAvg speedWind from/ knotsBaromVisibWave heightAir tempDewpointWater temp
2018-May-23 01:29N 59°04' E 005°55'0 0.0
2018-May-23 00:59N 59°04' E 005°55'0 0.0
2018-May-23 00:29N 59°04' E 005°55'0 0.0
2018-May-22 23:59N 59°04' E 005°55'0 0.0
2018-May-22 23:29N 59°04' E 005°55'0 0.0
2018-May-22 22:59N 59°04' E 005°55'0 0.0
2018-May-22 22:29N 59°04' E 005°55'0 0.0
2018-May-22 21:56N 59°04' E 005°55'0 0.0
2018-May-22 21:29N 59°04' E 005°55'0 0.0
2018-May-22 20:59N 59°04' E 005°55'0 0.0
2018-May-22 20:29N 59°04' E 005°55'0 0.0
2018-May-22 19:59N 59°04' E 005°55'0 0.0
2018-May-22 19:26N 59°04' E 005°55'0 0.0
2018-May-22 18:56N 59°04' E 005°55'0 0.0
2018-May-22 18:29N 59°04' E 005°55'0 0.0
2018-May-22 17:59N 59°04' E 005°55'0 0.0
2018-May-22 17:26N 59°04' E 005°55'0 0.0
2018-May-22 16:56N 59°04' E 005°55'0 0.0
2018-May-22 16:26N 59°04' E 005°55'0 0.0
2018-May-22 15:59N 59°04' E 005°55'0 0.0
2018-May-22 15:29N 59°04' E 005°55'0 0.0
2018-May-22 14:59N 59°04' E 005°55'0 0.0
2018-May-22 14:26N 59°04' E 005°55'0 0.0
2018-May-22 13:59N 59°04' E 005°55'0 0.0
2018-May-22 13:29N 59°04' E 005°55'0 0.0
2018-May-22 12:56N 59°04' E 005°55'0 0.0
2018-May-22 12:29N 59°04' E 005°55'0 0.0
2018-May-22 11:59N 59°04' E 005°55'0 0.0
2018-May-22 11:29N 59°04' E 005°55'0 0.3
2018-May-22 11:00N 59°04' E 005°54'3 5.2
2018-May-22 10:30N 59°02' E 005°51'3 6.0
2018-May-22 10:00N 59°01' E 005°45'3 5.1
2018-May-22 09:30N 58°59' E 005°43'1 1.8
2018-May-22 08:59N 58°58' E 005°44'0 0.0
2018-May-22 08:29N 58°58' E 005°44'0 0.0
2018-May-22 07:59N 58°58' E 005°44'0 0.0
2018-May-22 07:29N 58°58' E 005°44'0 0.0
2018-May-22 06:59N 58°58' E 005°44'0 0.0
2018-May-22 06:29N 58°58' E 005°44'0 0.0
2018-May-22 05:59N 58°58' E 005°44'0 0.0
2018-May-22 05:29N 58°58' E 005°44'0 0.0
2018-May-22 04:59N 58°58' E 005°44'0 0.0
2018-May-22 04:29N 58°58' E 005°44'0 0.0
2018-May-22 03:59N 58°58' E 005°44'0 0.0
2018-May-22 03:29N 58°58' E 005°44'0 0.0
2018-May-22 02:56N 58°58' E 005°44'0 0.0
2018-May-22 02:29N 58°58' E 005°44'0 0.0
2018-May-22 01:59N 58°58' E 005°44'0 0.0
2018-May-22 01:29N 58°58' E 005°44'0 0.0
2018-May-22 00:59N 58°58' E 005°44'0 0.0
2018-May-22 00:29N 58°58' E 005°44'0 0.0
2018-May-21 23:59N 58°58' E 005°44'0 0.0
2018-May-21 23:29N 58°58' E 005°44'0 0.0
2018-May-21 22:59N 58°58' E 005°44'0 0.0
2018-May-21 22:29N 58°58' E 005°44'0 0.0
2018-May-21 21:59N 58°58' E 005°44'0 0.0
2018-May-21 21:29N 58°58' E 005°44'0 0.0
2018-May-21 20:59N 58°58' E 005°44'0 0.0
2018-May-21 20:29N 58°58' E 005°44'0 0.0
2018-May-21 19:59N 58°58' E 005°44'2 3.5
2018-May-21 19:30N 58°60' E 005°42'3 6.1
2018-May-21 19:00N 59°02' E 005°46'4 7.1
2018-May-21 18:30N 58°60' E 005°51'4 7.4
2018-May-21 18:00N 58°57' E 005°57'4 7.1
2018-May-21 17:25N 58°55' E 006°03'2 4.6
2018-May-21 17:00N 58°56' E 006°06'3 6.9
2018-May-21 16:30N 58°58' E 006°11'4 7.1
2018-May-21 16:00N 59°00' E 006°17'4 7.5
2018-May-21 15:30N 59°01' E 006°24'3 0.1
2018-May-20 12:39N 59°02' E 006°30'1 6.4
2018-May-20 12:30N 59°02' E 006°28'3 6.2
2018-May-20 12:00N 59°01' E 006°22'3 6.1
2018-May-20 11:30N 59°00' E 006°16'3 5.6
2018-May-20 11:00N 58°59' E 006°12'3 5.9
2018-May-20 10:30N 58°57' E 006°08'3 6.0
2018-May-20 09:59N 58°54' E 006°05'3 6.2
2018-May-20 09:30N 58°56' E 006°00'3 7.0
2018-May-20 09:00N 58°58' E 005°55'4 7.7
2018-May-20 08:30N 59°01' E 005°49'3 6.9
2018-May-20 08:00N 59°01' E 005°43'2 4.7
2018-May-20 07:30N 58°58' E 005°44'0 0.0
2018-May-20 07:00N 58°58' E 005°44'0 0.0
2018-May-20 06:30N 58°58' E 005°44'0 0.0
2018-May-20 06:00N 58°58' E 005°44'0 0.0
2018-May-20 05:30N 58°58' E 005°44'0 0.0
2018-May-20 05:00N 58°58' E 005°44'0 0.0
2018-May-20 04:30N 58°58' E 005°44'0 0.0
2018-May-20 04:00N 58°58' E 005°44'0 0.0
2018-May-20 03:27N 58°58' E 005°44'0 0.0
2018-May-20 03:00N 58°58' E 005°44'0 0.0
2018-May-20 02:30N 58°58' E 005°44'0 0.0
2018-May-20 02:00N 58°58' E 005°44'0 0.0
2018-May-20 01:30N 58°58' E 005°44'0 0.0
2018-May-20 01:00N 58°58' E 005°44'0 0.0
2018-May-20 00:30N 58°58' E 005°44'0 0.0
2018-May-20 00:00N 58°58' E 005°44'0 0.0
2018-May-19 23:30N 58°58' E 005°44'0 0.0
2018-May-19 23:00N 58°58' E 005°44'0 0.0
2018-May-19 22:30N 58°58' E 005°44'0 0.0
2018-May-19 22:00N 58°58' E 005°44'0 0.0
2018-May-19 21:27N 58°58' E 005°44'0 0.0
2018-May-19 20:57N 58°58' E 005°44'0 0.0
2018-May-19 20:30N 58°58' E 005°44'0 0.0
2018-May-19 20:00N 58°58' E 005°44'0 0.0
2018-May-19 19:30N 58°58' E 005°44'0 0.0
2018-May-19 18:57N 58°58' E 005°44'0 0.0
2018-May-19 18:30N 58°58' E 005°44'0 0.0
2018-May-19 17:54N 58°58' E 005°44'0 0.0
2018-May-19 17:27N 58°58' E 005°44'0 0.0
2018-May-19 17:00N 58°58' E 005°44'0 0.0
2018-May-19 16:30N 58°58' E 005°44'0 0.0
2018-May-19 16:00N 58°58' E 005°44'0 0.0
2018-May-19 15:30N 58°58' E 005°44'0 0.0
2018-May-19 15:00N 58°58' E 005°44'0 0.0
2018-May-19 14:30N 58°58' E 005°44'0 0.0
2018-May-19 14:00N 58°58' E 005°44'0 0.0
2018-May-19 13:30N 58°58' E 005°44'0 0.0
2018-May-19 13:00N 58°58' E 005°44'0 0.0
2018-May-19 12:30N 58°58' E 005°44'0 0.0
2018-May-19 12:00N 58°58' E 005°44'0 0.0
2018-May-19 11:30N 58°58' E 005°44'0 0.0
2018-May-19 11:00N 58°58' E 005°44'0 0.0
2018-May-19 10:30N 58°58' E 005°44'0 0.0
2018-May-19 10:00N 58°58' E 005°44'0 0.0
2018-May-19 09:30N 58°58' E 005°44'0 0.0
2018-May-19 09:00N 58°58' E 005°44'0 0.0
2018-May-19 08:30N 58°58' E 005°44'0 0.0
2018-May-19 08:00N 58°58' E 005°44'0 0.0
2018-May-19 07:30N 58°58' E 005°44'0 0.0
2018-May-19 07:00N 58°58' E 005°44'0 0.0
2018-May-19 06:30N 58°58' E 005°44'0 0.0
2018-May-19 06:00N 58°58' E 005°44'0 0.0
2018-May-19 05:27N 58°58' E 005°44'0 0.0
2018-May-19 05:00N 58°58' E 005°44'0 0.0
2018-May-19 04:30N 58°58' E 005°44'0 0.0
2018-May-19 04:00N 58°58' E 005°44'0 0.0
2018-May-19 03:30N 58°58' E 005°44'0 0.0
2018-May-19 03:00N 58°58' E 005°44'0 0.0
2018-May-19 02:30N 58°58' E 005°44'0 0.0
2018-May-19 02:00N 58°58' E 005°44'0 0.0
2018-May-19 01:30N 58°58' E 005°44'0 0.8
2018-May-19 01:00N 58°59' E 005°43'2 4.1
2018-May-19 00:30N 59°00' E 005°41'2 3.9
2018-May-19 00:00N 59°02' E 005°38'3 6.2
2018-May-18 23:30N 59°03' E 005°34'3 6.9
2018-May-18 23:00N 59°01' E 005°30'3 6.8
2018-May-18 22:30N 58°58' E 005°25'3 6.6
2018-May-18 22:00N 58°56' E 005°20'3 6.8
2018-May-18 21:30N 58°54' E 005°15'3 6.7
2018-May-18 21:00N 58°52' E 005°10'4 6.6
2018-May-18 20:20N 58°49' E 005°03'4 6.6
2018-May-18 19:47N 58°47' E 004°58'3 7.1
2018-May-18 19:22N 58°45' E 004°54'2 6.8
2018-May-18 19:00N 58°43' E 004°51'4 6.5
2018-May-18 18:25N 58°39' E 004°47'3 7.1
2018-May-18 18:00N 58°37' E 004°44'4 6.8
2018-May-18 17:24N 58°34' E 004°40'8 7.6
2018-May-18 16:18N 58°27' E 004°29'3 8.0
2018-May-18 15:54N 58°25' E 004°25'257 7.3
2018-May-17 04:37N 55°30' W 001°20'2 5.7
2018-May-17 04:22N 55°28' W 001°20'2 5.8
2018-May-17 03:58N 55°26' W 001°20'3 6.3
2018-May-17 03:28N 55°23' W 001°19'3 6.5
2018-May-17 02:59N 55°20' W 001°20'3 6.2
2018-May-17 02:26N 55°16' W 001°18'3 6.2
2018-May-17 02:00N 55°14' W 001°17'3 6.1
2018-May-17 01:30N 55°11' W 001°15'3 5.8
2018-May-17 01:00N 55°08' W 001°13'3 6.2
2018-May-17 00:29N 55°05' W 001°10'41 7.7
2018-May-16 19:07N 54°34' W 000°24'1 7.9
2018-May-16 18:56N 54°33' W 000°21'3 6.2
2018-May-16 18:31N 54°31' W 000°18'3 5.7
2018-May-16 18:00N 54°29' W 000°15'2 4.9
2018-May-16 17:30N 54°27' W 000°12'3 5.2
2018-May-16 17:00N 54°25' W 000°09'3 5.4
2018-May-16 16:30N 54°23' W 000°06'3 6.1
2018-May-16 16:00N 54°21' W 000°02'3 5.9
2018-May-16 15:30N 54°19' E 000°01'3 5.8
2018-May-16 15:00N 54°17' E 000°05'2 4.5
2018-May-16 14:30N 54°15' E 000°07'3 4.7
2018-May-16 13:57N 54°13' E 000°10'2 5.0
2018-May-16 13:29N 54°12' E 000°14'2 5.0
2018-May-16 12:59N 54°11' E 000°17'57 5.4
2018-May-16 02:33N 53°20' E 000°59'2 8.9
2018-May-16 02:20N 53°19' E 001°02'8 9.6
2018-May-16 01:33N 53°13' E 001°10'510.3
2018-May-16 01:04N 53°10' E 001°16'110.2
2018-May-16 00:56N 53°09' E 001°17'4 9.8
2018-May-16 00:30N 53°05' E 001°22'5 9.5
2018-May-15 23:59N 53°02' E 001°28'5 9.4
2018-May-15 23:30N 52°59' E 001°33'4 8.8
2018-May-15 23:01N 52°56' E 001°38'4 8.2
2018-May-15 22:30N 52°52' E 001°43'4 7.1
2018-May-15 22:00N 52°50' E 001°47'3 6.4
2018-May-15 21:29N 52°47' E 001°50'3 5.4
2018-May-15 20:54N 52°45' E 001°54'2 5.5
2018-May-15 20:30N 52°44' E 001°57'20 4.9
2018-May-15 16:23N 52°24' E 002°04'9 7.9
2018-May-15 15:13N 52°15' E 002°07'2 8.3
2018-May-15 14:56N 52°12' E 002°07'4 8.3
2018-May-15 14:29N 52°09' E 002°08'4 8.1
2018-May-15 13:59N 52°05' E 002°09'19 6.8
2018-May-15 11:12N 51°46' E 002°06'13 5.4
2018-May-15 08:50N 51°35' E 001°56'2 4.5
2018-May-15 08:29N 51°33' E 001°55'2 3.5
2018-May-15 08:00N 51°32' E 001°53'2 4.5
2018-May-15 07:30N 51°30' E 001°51'2 4.7
2018-May-15 07:00N 51°28' E 001°49'2 4.5
2018-May-15 06:30N 51°26' E 001°47'2 4.8
2018-May-15 06:00N 51°24' E 001°45'2 5.0
2018-May-15 05:30N 51°22' E 001°44'3 5.5
2018-May-15 05:00N 51°19' E 001°42'3 5.9
2018-May-15 04:30N 51°17' E 001°40'3 5.4
2018-May-15 04:01N 51°14' E 001°39'2 3.4
2018-May-15 03:30N 51°13' E 001°38'4 8.7
2018-May-15 02:59N 51°10' E 001°33'35 7.3
2018-May-14 22:10N 50°49' E 000°47'4 7.7
2018-May-14 21:42N 50°47' E 000°43'2 8.5
2018-May-14 21:30N 50°46' E 000°40'4 7.5
2018-May-14 20:59N 50°44' E 000°35'4 8.6
2018-May-14 20:29N 50°43' E 000°29'5 9.5
2018-May-14 20:00N 50°41' E 000°22'5 8.5
2018-May-14 19:23N 50°39' E 000°15'3 7.1
2018-May-14 19:00N 50°38' E 000°10'3 6.7
2018-May-14 18:29N 50°37' E 000°05'4 8.0
2018-May-14 17:59N 50°36' W 000°01'3 7.3
2018-May-14 17:30N 50°35' W 000°06'4 7.5
2018-May-14 17:00N 50°35' W 000°12'4 7.3
2018-May-14 16:30N 50°35' W 000°18'4 7.0
2018-May-14 15:57N 50°35' W 000°24'2 5.3
2018-May-14 15:29N 50°35' W 000°28'3 6.0
2018-May-14 14:59N 50°35' W 000°33'8 7.2
2018-May-14 13:53N 50°39' W 000°43'3 6.8
2018-May-14 13:24N 50°40' W 000°48'3 6.6
2018-May-14 12:58N 50°41' W 000°53'3 5.9
2018-May-14 12:29N 50°42' W 000°57'2 5.0
2018-May-14 12:00N 50°43' W 001°00'3 6.1
2018-May-14 11:30N 50°45' W 001°04'1 2.5
2018-May-14 11:00N 50°46' W 001°06'2 4.2
2018-May-14 10:28N 50°48' W 001°07'0 0.0
2018-May-14 09:58N 50°48' W 001°07'0 0.0
2018-May-14 09:28N 50°48' W 001°07'0 0.0
2018-May-14 08:58N 50°48' W 001°07'0 0.0
2018-May-14 08:28N 50°48' W 001°07'0 0.0
2018-May-14 07:58N 50°48' W 001°07'0 0.0
2018-May-14 07:28N 50°48' W 001°07'0 0.0
2018-May-14 06:58N 50°48' W 001°07'0 0.0
2018-May-14 06:28N 50°48' W 001°07'0 0.0
2018-May-14 05:58N 50°48' W 001°07'0 0.0
2018-May-14 05:28N 50°48' W 001°07'0 0.0
2018-May-14 04:58N 50°48' W 001°07'0 0.0
2018-May-14 04:28N 50°48' W 001°07'0 0.0
2018-May-14 03:58N 50°48' W 001°07'0 0.0
2018-May-14 03:28N 50°48' W 001°07'0 0.0
2018-May-14 02:58N 50°48' W 001°07'0 0.0
2018-May-14 02:28N 50°48' W 001°07'0 0.0
2018-May-14 01:58N 50°48' W 001°07'0 0.0
2018-May-14 01:28N 50°48' W 001°07'0 0.0
2018-May-14 00:58N 50°48' W 001°07'0 0.0
2018-May-14 00:28N 50°48' W 001°07'0 0.0
2018-May-13 23:58N 50°48' W 001°07'0 0.0
2018-May-13 23:28N 50°48' W 001°07'0 0.0
2018-May-13 22:58N 50°48' W 001°07'0 0.0
2018-May-13 22:28N 50°48' W 001°07'0 0.0
2018-May-13 21:58N 50°48' W 001°07'0 0.0
2018-May-13 21:28N 50°48' W 001°07'0 0.0
2018-May-13 20:58N 50°48' W 001°07'0 0.0
2018-May-13 20:28N 50°48' W 001°07'0 0.0
2018-May-13 19:58N 50°48' W 001°07'0 0.0
2018-May-13 19:28N 50°48' W 001°07'0 0.0
2018-May-13 18:58N 50°48' W 001°07'0 0.0
2018-May-13 18:28N 50°48' W 001°07'0 0.0
2018-May-13 17:58N 50°48' W 001°07'0 0.0
2018-May-13 17:28N 50°48' W 001°07'0 0.0
2018-May-13 16:58N 50°48' W 001°07'0 0.0
2018-May-13 16:28N 50°48' W 001°07'0 0.0
2018-May-13 15:58N 50°48' W 001°07'0 0.0
2018-May-13 15:28N 50°48' W 001°07'0 0.0
2018-May-13 14:58N 50°48' W 001°07'0 0.0
2018-May-13 14:28N 50°48' W 001°07'0 0.0
2018-May-13 13:58N 50°48' W 001°07'0 0.0
2018-May-13 13:28N 50°48' W 001°07'0 0.0
2018-May-13 12:58N 50°48' W 001°07'0 0.0
2018-May-13 12:28N 50°48' W 001°07'0 0.0
2018-May-13 11:58N 50°48' W 001°07'0 0.0
2018-May-13 11:28N 50°48' W 001°07'0 0.0
2018-May-13 10:58N 50°48' W 001°07'0 0.0
2018-May-13 10:28N 50°48' W 001°07'0 0.0
2018-May-13 09:58N 50°48' W 001°07'0 0.0
2018-May-13 09:28N 50°48' W 001°07'0 0.0
2018-May-13 08:58N 50°48' W 001°07'0 0.0
2018-May-13 08:28N 50°48' W 001°07'0 0.0
2018-May-13 07:58N 50°48' W 001°07'0 0.0
2018-May-13 07:28N 50°48' W 001°07'0 0.0
2018-May-13 06:58N 50°48' W 001°07'0 0.0
2018-May-13 06:28N 50°48' W 001°07'0 0.0
2018-May-13 05:58N 50°48' W 001°07'0 0.0
2018-May-13 05:28N 50°48' W 001°07'0 0.0
2018-May-13 04:58N 50°48' W 001°07'0 0.0
2018-May-13 04:28N 50°48' W 001°07'0 0.0
2018-May-13 03:58N 50°48' W 001°07'0 0.0
2018-May-13 03:28N 50°48' W 001°07'0 0.0
2018-May-13 02:58N 50°48' W 001°07'0 0.0
2018-May-13 02:28N 50°48' W 001°07'0 0.0
2018-May-13 01:58N 50°48' W 001°07'  

Dump ship's entire track history